sensor_id;sensor_type;location;lat;lon;timestamp;temperature;humidity
40287;DHT22;25998;46.604;13.610;2023-06-14T00:01:20;16.10;99.90
40287;DHT22;25998;46.604;13.610;2023-06-14T00:04:32;16.00;99.90
40287;DHT22;25998;46.604;13.610;2023-06-14T00:07:43;15.90;99.90
40287;DHT22;25998;46.604;13.610;2023-06-14T00:10:54;16.00;99.90
40287;DHT22;25998;46.604;13.610;2023-06-14T00:14:05;15.90;99.90
40287;DHT22;25998;46.604;13.610;2023-06-14T00:17:16;15.80;99.90
40287;DHT22;25998;46.604;13.610;2023-06-14T00:20:28;15.80;99.90
40287;DHT22;25998;46.604;13.610;2023-06-14T00:23:39;15.80;99.90
40287;DHT22;25998;46.604;13.610;2023-06-14T00:26:50;15.90;99.90
40287;DHT22;25998;46.604;13.610;2023-06-14T00:30:01;15.80;99.90
40287;DHT22;25998;46.604;13.610;2023-06-14T00:33:12;15.60;99.90
40287;DHT22;25998;46.604;13.610;2023-06-14T00:36:23;15.80;99.90
40287;DHT22;25998;46.604;13.610;2023-06-14T00:39:34;15.90;99.90
40287;DHT22;25998;46.604;13.610;2023-06-14T00:42:45;16.00;99.90
40287;DHT22;25998;46.604;13.610;2023-06-14T00:45:56;15.90;99.90
40287;DHT22;25998;46.604;13.610;2023-06-14T00:49:07;15.70;99.90
40287;DHT22;25998;46.604;13.610;2023-06-14T00:52:18;15.50;99.90
40287;DHT22;25998;46.604;13.610;2023-06-14T00:55:30;15.60;99.90
40287;DHT22;25998;46.604;13.610;2023-06-14T00:58:41;15.70;99.90
40287;DHT22;25998;46.604;13.610;2023-06-14T01:01:52;15.70;99.90
40287;DHT22;25998;46.604;13.610;2023-06-14T01:05:03;15.60;99.90
40287;DHT22;25998;46.604;13.610;2023-06-14T01:09:18;15.50;99.90
40287;DHT22;25998;46.604;13.610;2023-06-14T01:15:34;15.60;99.90
40287;DHT22;25998;46.604;13.610;2023-06-14T01:18:46;15.50;99.90
40287;DHT22;25998;46.604;13.610;2023-06-14T01:22:01;15.30;99.90
40287;DHT22;25998;46.604;13.610;2023-06-14T01:25:12;15.20;99.90
40287;DHT22;25998;46.604;13.610;2023-06-14T01:28:25;15.40;99.90
40287;DHT22;25998;46.604;13.610;2023-06-14T01:31:37;15.50;99.90
40287;DHT22;25998;46.604;13.610;2023-06-14T01:34:51;15.60;99.90
40287;DHT22;25998;46.604;13.610;2023-06-14T01:38:03;15.50;99.90
40287;DHT22;25998;46.604;13.610;2023-06-14T01:41:20;15.50;99.90
40287;DHT22;25998;46.604;13.610;2023-06-14T01:44:31;15.50;99.90
40287;DHT22;25998;46.604;13.610;2023-06-14T01:47:44;15.60;99.90
40287;DHT22;25998;46.604;13.610;2023-06-14T01:50:56;15.70;99.90
40287;DHT22;25998;46.604;13.610;2023-06-14T01:54:06;15.60;99.90
40287;DHT22;25998;46.604;13.610;2023-06-14T01:57:17;15.70;99.90
40287;DHT22;25998;46.604;13.610;2023-06-14T02:00:28;15.60;99.90
40287;DHT22;25998;46.604;13.610;2023-06-14T02:03:39;15.50;99.90
40287;DHT22;25998;46.604;13.610;2023-06-14T02:06:50;15.50;99.90
40287;DHT22;25998;46.604;13.610;2023-06-14T02:10:01;15.30;99.90
40287;DHT22;25998;46.604;13.610;2023-06-14T02:13:12;15.30;99.90
40287;DHT22;25998;46.604;13.610;2023-06-14T02:16:23;15.40;99.90
40287;DHT22;25998;46.604;13.610;2023-06-14T02:19:35;15.30;99.90
40287;DHT22;25998;46.604;13.610;2023-06-14T02:22:46;15.30;99.90
40287;DHT22;25998;46.604;13.610;2023-06-14T02:25:57;15.20;99.90
40287;DHT22;25998;46.604;13.610;2023-06-14T02:29:07;15.10;99.90
40287;DHT22;25998;46.604;13.610;2023-06-14T02:32:23;15.10;99.90
40287;DHT22;25998;46.604;13.610;2023-06-14T02:35:34;15.10;99.90
40287;DHT22;25998;46.604;13.610;2023-06-14T02:38:45;15.10;99.90
40287;DHT22;25998;46.604;13.610;2023-06-14T02:41:56;15.10;99.90
40287;DHT22;25998;46.604;13.610;2023-06-14T02:45:08;15.00;99.90
40287;DHT22;25998;46.604;13.610;2023-06-14T02:48:19;15.10;99.90
40287;DHT22;25998;46.604;13.610;2023-06-14T02:51:29;15.30;99.90
40287;DHT22;25998;46.604;13.610;2023-06-14T02:54:40;15.20;99.90
40287;DHT22;25998;46.604;13.610;2023-06-14T02:57:52;15.20;99.90
40287;DHT22;25998;46.604;13.610;2023-06-14T03:01:07;15.20;99.90
40287;DHT22;25998;46.604;13.610;2023-06-14T03:04:18;15.40;99.90
40287;DHT22;25998;46.604;13.610;2023-06-14T03:07:29;15.40;99.90
40287;DHT22;25998;46.604;13.610;2023-06-14T03:10:40;15.30;99.90
40287;DHT22;25998;46.604;13.610;2023-06-14T03:13:52;15.40;99.90
40287;DHT22;25998;46.604;13.610;2023-06-14T03:17:03;15.40;99.90
40287;DHT22;25998;46.604;13.610;2023-06-14T03:20:15;15.30;99.90
40287;DHT22;25998;46.604;13.610;2023-06-14T03:23:26;15.20;99.90
40287;DHT22;25998;46.604;13.610;2023-06-14T03:26:37;15.30;99.90
40287;DHT22;25998;46.604;13.610;2023-06-14T03:29:48;15.30;99.90
40287;DHT22;25998;46.604;13.610;2023-06-14T03:32:59;15.40;99.90
40287;DHT22;25998;46.604;13.610;2023-06-14T03:36:11;15.40;99.90
40287;DHT22;25998;46.604;13.610;2023-06-14T03:39:22;15.30;99.90
40287;DHT22;25998;46.604;13.610;2023-06-14T03:42:33;15.20;99.90
40287;DHT22;25998;46.604;13.610;2023-06-14T03:45:44;15.20;99.90
40287;DHT22;25998;46.604;13.610;2023-06-14T03:48:55;15.30;99.90
40287;DHT22;25998;46.604;13.610;2023-06-14T03:52:06;15.40;99.90
40287;DHT22;25998;46.604;13.610;2023-06-14T03:55:17;15.40;99.90
40287;DHT22;25998;46.604;13.610;2023-06-14T03:58:28;15.50;99.90
40287;DHT22;25998;46.604;13.610;2023-06-14T04:01:39;15.60;99.90
40287;DHT22;25998;46.604;13.610;2023-06-14T04:04:56;15.60;99.90
40287;DHT22;25998;46.604;13.610;2023-06-14T04:08:08;15.60;99.90
40287;DHT22;25998;46.604;13.610;2023-06-14T04:11:19;15.60;99.90
40287;DHT22;25998;46.604;13.610;2023-06-14T04:14:30;15.60;99.90
40287;DHT22;25998;46.604;13.610;2023-06-14T04:17:43;15.50;99.90
40287;DHT22;25998;46.604;13.610;2023-06-14T04:20:54;15.60;99.90
40287;DHT22;25998;46.604;13.610;2023-06-14T04:24:07;15.80;99.90
40287;DHT22;25998;46.604;13.610;2023-06-14T04:27:25;15.70;99.90
40287;DHT22;25998;46.604;13.610;2023-06-14T04:30:36;15.70;99.90
40287;DHT22;25998;46.604;13.610;2023-06-14T04:33:49;15.80;99.90
40287;DHT22;25998;46.604;13.610;2023-06-14T04:37:03;15.80;99.90
40287;DHT22;25998;46.604;13.610;2023-06-14T04:40:17;15.60;99.90
40287;DHT22;25998;46.604;13.610;2023-06-14T04:43:28;15.60;99.90
40287;DHT22;25998;46.604;13.610;2023-06-14T04:46:41;15.70;99.90
40287;DHT22;25998;46.604;13.610;2023-06-14T04:49:59;15.70;99.90
40287;DHT22;25998;46.604;13.610;2023-06-14T04:53:11;15.70;99.90
40287;DHT22;25998;46.604;13.610;2023-06-14T04:56:22;15.70;99.90
40287;DHT22;25998;46.604;13.610;2023-06-14T04:59:33;15.80;99.90
40287;DHT22;25998;46.604;13.610;2023-06-14T05:02:46;15.70;99.90
40287;DHT22;25998;46.604;13.610;2023-06-14T05:05:57;15.80;99.90
40287;DHT22;25998;46.604;13.610;2023-06-14T05:09:08;15.90;99.90
40287;DHT22;25998;46.604;13.610;2023-06-14T05:12:19;15.80;99.90
40287;DHT22;25998;46.604;13.610;2023-06-14T05:15:29;15.80;99.90
40287;DHT22;25998;46.604;13.610;2023-06-14T05:18:40;15.80;99.90
40287;DHT22;25998;46.604;13.610;2023-06-14T05:21:51;15.70;99.90
40287;DHT22;25998;46.604;13.610;2023-06-14T05:25:05;15.80;99.90
40287;DHT22;25998;46.604;13.610;2023-06-14T05:28:16;15.90;99.90
40287;DHT22;25998;46.604;13.610;2023-06-14T05:31:27;15.90;99.90
40287;DHT22;25998;46.604;13.610;2023-06-14T05:34:38;15.90;99.90
40287;DHT22;25998;46.604;13.610;2023-06-14T05:37:49;15.90;99.90
40287;DHT22;25998;46.604;13.610;2023-06-14T05:41:00;15.80;99.90
40287;DHT22;25998;46.604;13.610;2023-06-14T05:44:11;15.90;99.90
40287;DHT22;25998;46.604;13.610;2023-06-14T05:47:22;16.00;99.90
40287;DHT22;25998;46.604;13.610;2023-06-14T05:50:33;16.10;99.90
40287;DHT22;25998;46.604;13.610;2023-06-14T05:53:48;16.10;99.90
40287;DHT22;25998;46.604;13.610;2023-06-14T05:56:59;16.10;99.90
40287;DHT22;25998;46.604;13.610;2023-06-14T06:00:12;16.20;99.90
40287;DHT22;25998;46.604;13.610;2023-06-14T06:03:24;16.30;99.90
40287;DHT22;25998;46.604;13.610;2023-06-14T06:06:35;16.40;99.90
40287;DHT22;25998;46.604;13.610;2023-06-14T06:09:46;16.40;99.90
40287;DHT22;25998;46.604;13.610;2023-06-14T06:12:57;16.40;99.90
40287;DHT22;25998;46.604;13.610;2023-06-14T06:16:08;16.30;99.90
40287;DHT22;25998;46.604;13.610;2023-06-14T06:19:19;16.20;99.90
40287;DHT22;25998;46.604;13.610;2023-06-14T06:22:30;16.10;99.90
40287;DHT22;25998;46.604;13.610;2023-06-14T06:25:42;16.10;99.90
40287;DHT22;25998;46.604;13.610;2023-06-14T06:28:53;16.20;99.90
40287;DHT22;25998;46.604;13.610;2023-06-14T06:32:05;16.20;99.90
40287;DHT22;25998;46.604;13.610;2023-06-14T06:35:18;16.20;99.90
40287;DHT22;25998;46.604;13.610;2023-06-14T06:38:29;16.30;99.90
40287;DHT22;25998;46.604;13.610;2023-06-14T06:41:40;16.40;99.90
40287;DHT22;25998;46.604;13.610;2023-06-14T06:44:51;16.50;99.90
40287;DHT22;25998;46.604;13.610;2023-06-14T06:48:02;16.40;99.90
40287;DHT22;25998;46.604;13.610;2023-06-14T06:51:13;16.20;99.90
40287;DHT22;25998;46.604;13.610;2023-06-14T06:54:24;16.20;99.90
40287;DHT22;25998;46.604;13.610;2023-06-14T06:57:35;16.30;99.90
40287;DHT22;25998;46.604;13.610;2023-06-14T07:00:46;16.40;99.90
40287;DHT22;25998;46.604;13.610;2023-06-14T07:03:57;16.50;99.90
40287;DHT22;25998;46.604;13.610;2023-06-14T07:07:08;16.60;99.90
40287;DHT22;25998;46.604;13.610;2023-06-14T07:10:20;16.50;99.90
40287;DHT22;25998;46.604;13.610;2023-06-14T07:13:31;16.30;99.90
40287;DHT22;25998;46.604;13.610;2023-06-14T07:16:42;16.20;99.90
40287;DHT22;25998;46.604;13.610;2023-06-14T07:19:53;16.20;99.90
40287;DHT22;25998;46.604;13.610;2023-06-14T07:23:04;16.20;99.90
40287;DHT22;25998;46.604;13.610;2023-06-14T07:26:16;16.30;99.90
40287;DHT22;25998;46.604;13.610;2023-06-14T07:29:26;16.40;99.90
40287;DHT22;25998;46.604;13.610;2023-06-14T07:32:38;16.40;99.90
40287;DHT22;25998;46.604;13.610;2023-06-14T07:35:49;16.50;99.90
40287;DHT22;25998;46.604;13.610;2023-06-14T07:39:00;16.50;99.90
40287;DHT22;25998;46.604;13.610;2023-06-14T07:42:14;16.40;99.90
40287;DHT22;25998;46.604;13.610;2023-06-14T07:45:24;16.50;99.90
40287;DHT22;25998;46.604;13.610;2023-06-14T07:48:35;16.70;99.90
40287;DHT22;25998;46.604;13.610;2023-06-14T07:51:46;16.70;99.90
40287;DHT22;25998;46.604;13.610;2023-06-14T07:54:58;16.80;99.90
40287;DHT22;25998;46.604;13.610;2023-06-14T07:58:09;16.90;99.90
40287;DHT22;25998;46.604;13.610;2023-06-14T08:01:21;17.00;99.90
40287;DHT22;25998;46.604;13.610;2023-06-14T08:04:34;17.00;99.90
40287;DHT22;25998;46.604;13.610;2023-06-14T08:07:45;17.00;99.90
40287;DHT22;25998;46.604;13.610;2023-06-14T08:10:56;16.90;99.90
40287;DHT22;25998;46.604;13.610;2023-06-14T08:14:08;17.00;99.90
40287;DHT22;25998;46.604;13.610;2023-06-14T08:17:19;17.20;99.90
40287;DHT22;25998;46.604;13.610;2023-06-14T08:20:30;17.10;99.90
40287;DHT22;25998;46.604;13.610;2023-06-14T08:23:42;17.00;99.90
40287;DHT22;25998;46.604;13.610;2023-06-14T08:26:53;17.10;99.90
40287;DHT22;25998;46.604;13.610;2023-06-14T08:30:05;17.20;99.90
40287;DHT22;25998;46.604;13.610;2023-06-14T08:33:16;17.30;99.90
40287;DHT22;25998;46.604;13.610;2023-06-14T08:36:26;17.30;99.90
40287;DHT22;25998;46.604;13.610;2023-06-14T08:39:37;17.50;99.90
40287;DHT22;25998;46.604;13.610;2023-06-14T08:42:54;17.50;99.90
40287;DHT22;25998;46.604;13.610;2023-06-14T08:46:06;17.60;99.90
40287;DHT22;25998;46.604;13.610;2023-06-14T08:49:21;17.80;99.90
40287;DHT22;25998;46.604;13.610;2023-06-14T08:52:36;17.90;99.90
40287;DHT22;25998;46.604;13.610;2023-06-14T08:55:50;17.90;99.90
40287;DHT22;25998;46.604;13.610;2023-06-14T08:59:04;18.20;99.90
40287;DHT22;25998;46.604;13.610;2023-06-14T09:02:17;18.10;99.90
40287;DHT22;25998;46.604;13.610;2023-06-14T09:05:30;18.10;99.90
40287;DHT22;25998;46.604;13.610;2023-06-14T09:08:42;18.10;99.90
40287;DHT22;25998;46.604;13.610;2023-06-14T09:11:54;18.20;99.90
40287;DHT22;25998;46.604;13.610;2023-06-14T09:15:07;18.40;99.90
40287;DHT22;25998;46.604;13.610;2023-06-14T09:18:22;18.20;99.90
40287;DHT22;25998;46.604;13.610;2023-06-14T09:21:47;18.30;99.90
40287;DHT22;25998;46.604;13.610;2023-06-14T09:24:59;18.20;99.90
40287;DHT22;25998;46.604;13.610;2023-06-14T09:28:09;18.10;99.90
40287;DHT22;25998;46.604;13.610;2023-06-14T09:31:21;18.40;99.90
40287;DHT22;25998;46.604;13.610;2023-06-14T09:34:34;18.70;99.90
40287;DHT22;25998;46.604;13.610;2023-06-14T09:37:46;18.50;99.90
40287;DHT22;25998;46.604;13.610;2023-06-14T09:40:58;18.50;99.90
40287;DHT22;25998;46.604;13.610;2023-06-14T09:44:10;18.60;99.90
40287;DHT22;25998;46.604;13.610;2023-06-14T09:47:23;18.40;99.90
40287;DHT22;25998;46.604;13.610;2023-06-14T09:50:34;18.40;99.90
40287;DHT22;25998;46.604;13.610;2023-06-14T09:53:46;18.40;99.90
40287;DHT22;25998;46.604;13.610;2023-06-14T09:56:59;18.60;99.90
40287;DHT22;25998;46.604;13.610;2023-06-14T10:00:13;19.40;99.90
40287;DHT22;25998;46.604;13.610;2023-06-14T10:03:29;18.90;99.90
40287;DHT22;25998;46.604;13.610;2023-06-14T10:06:41;18.80;99.90
40287;DHT22;25998;46.604;13.610;2023-06-14T10:09:53;18.70;99.90
40287;DHT22;25998;46.604;13.610;2023-06-14T10:13:04;18.60;99.90
40287;DHT22;25998;46.604;13.610;2023-06-14T10:16:28;18.60;99.90
40287;DHT22;25998;46.604;13.610;2023-06-14T10:20:14;18.70;99.90
40287;DHT22;25998;46.604;13.610;2023-06-14T10:23:29;18.60;99.90
40287;DHT22;25998;46.604;13.610;2023-06-14T10:26:53;18.90;99.90
40287;DHT22;25998;46.604;13.610;2023-06-14T10:30:07;19.10;99.90
40287;DHT22;25998;46.604;13.610;2023-06-14T10:33:21;19.20;99.90
40287;DHT22;25998;46.604;13.610;2023-06-14T10:36:32;19.60;99.90
40287;DHT22;25998;46.604;13.610;2023-06-14T10:39:45;19.90;99.90
40287;DHT22;25998;46.604;13.610;2023-06-14T10:42:59;20.50;99.90
40287;DHT22;25998;46.604;13.610;2023-06-14T10:46:18;20.40;99.90
40287;DHT22;25998;46.604;13.610;2023-06-14T10:52:53;19.50;99.90
40287;DHT22;25998;46.604;13.610;2023-06-14T10:56:06;19.50;99.90
40287;DHT22;25998;46.604;13.610;2023-06-14T10:59:19;19.50;99.90
40287;DHT22;25998;46.604;13.610;2023-06-14T11:06:29;20.30;99.90
40287;DHT22;25998;46.604;13.610;2023-06-14T11:13:07;20.90;99.90
40287;DHT22;25998;46.604;13.610;2023-06-14T11:16:18;21.40;99.90
40287;DHT22;25998;46.604;13.610;2023-06-14T11:19:29;21.40;99.90
40287;DHT22;25998;46.604;13.610;2023-06-14T11:22:42;21.60;99.90
40287;DHT22;25998;46.604;13.610;2023-06-14T11:25:53;21.70;99.90
40287;DHT22;25998;46.604;13.610;2023-06-14T11:29:04;21.70;99.90
40287;DHT22;25998;46.604;13.610;2023-06-14T11:32:15;21.60;99.90
40287;DHT22;25998;46.604;13.610;2023-06-14T11:35:28;22.00;99.90
40287;DHT22;25998;46.604;13.610;2023-06-14T11:38:39;21.90;99.90
40287;DHT22;25998;46.604;13.610;2023-06-14T11:41:50;21.90;99.90
40287;DHT22;25998;46.604;13.610;2023-06-14T11:45:01;22.20;99.90
40287;DHT22;25998;46.604;13.610;2023-06-14T11:48:13;22.40;99.90
40287;DHT22;25998;46.604;13.610;2023-06-14T11:51:24;22.40;99.90
40287;DHT22;25998;46.604;13.610;2023-06-14T11:54:35;22.30;99.90
40287;DHT22;25998;46.604;13.610;2023-06-14T11:57:47;22.00;99.90
40287;DHT22;25998;46.604;13.610;2023-06-14T12:00:58;21.90;99.90
40287;DHT22;25998;46.604;13.610;2023-06-14T12:04:08;22.00;99.90
40287;DHT22;25998;46.604;13.610;2023-06-14T12:07:22;22.20;99.90
40287;DHT22;25998;46.604;13.610;2023-06-14T12:10:40;22.70;99.90
40287;DHT22;25998;46.604;13.610;2023-06-14T12:13:54;22.50;99.90
40287;DHT22;25998;46.604;13.610;2023-06-14T12:17:06;22.50;99.90
40287;DHT22;25998;46.604;13.610;2023-06-14T12:20:18;22.50;99.90
40287;DHT22;25998;46.604;13.610;2023-06-14T12:23:46;22.60;99.90
40287;DHT22;25998;46.604;13.610;2023-06-14T12:26:58;22.60;99.90
40287;DHT22;25998;46.604;13.610;2023-06-14T12:30:14;22.80;99.90
40287;DHT22;25998;46.604;13.610;2023-06-14T12:33:25;22.40;99.90
40287;DHT22;25998;46.604;13.610;2023-06-14T12:36:36;22.60;99.90
40287;DHT22;25998;46.604;13.610;2023-06-14T12:39:52;23.20;99.90
40287;DHT22;25998;46.604;13.610;2023-06-14T12:43:02;23.30;99.90
40287;DHT22;25998;46.604;13.610;2023-06-14T12:46:14;23.00;99.90
40287;DHT22;25998;46.604;13.610;2023-06-14T12:49:25;22.70;99.90
40287;DHT22;25998;46.604;13.610;2023-06-14T12:52:36;22.90;99.90
40287;DHT22;25998;46.604;13.610;2023-06-14T12:55:47;23.30;99.90
40287;DHT22;25998;46.604;13.610;2023-06-14T12:58:58;23.80;99.90
40287;DHT22;25998;46.604;13.610;2023-06-14T13:02:13;23.80;99.90
40287;DHT22;25998;46.604;13.610;2023-06-14T13:05:24;23.60;98.70
40287;DHT22;25998;46.604;13.610;2023-06-14T13:08:35;23.60;99.90
40287;DHT22;25998;46.604;13.610;2023-06-14T13:11:46;23.50;99.60
40287;DHT22;25998;46.604;13.610;2023-06-14T13:14:57;23.40;98.80
40287;DHT22;25998;46.604;13.610;2023-06-14T13:18:08;23.40;99.30
40287;DHT22;25998;46.604;13.610;2023-06-14T13:21:19;23.50;99.90
40287;DHT22;25998;46.604;13.610;2023-06-14T13:24:30;23.40;98.70
40287;DHT22;25998;46.604;13.610;2023-06-14T13:27:41;23.50;98.60
40287;DHT22;25998;46.604;13.610;2023-06-14T13:30:52;23.50;97.70
40287;DHT22;25998;46.604;13.610;2023-06-14T13:34:03;23.80;99.30
40287;DHT22;25998;46.604;13.610;2023-06-14T13:37:15;23.50;97.80
40287;DHT22;25998;46.604;13.610;2023-06-14T13:40:26;23.50;98.60
40287;DHT22;25998;46.604;13.610;2023-06-14T13:43:37;23.70;97.80
40287;DHT22;25998;46.604;13.610;2023-06-14T13:46:48;24.10;98.60
40287;DHT22;25998;46.604;13.610;2023-06-14T13:49:59;24.70;97.60
40287;DHT22;25998;46.604;13.610;2023-06-14T13:53:10;24.60;97.10
40287;DHT22;25998;46.604;13.610;2023-06-14T13:56:21;23.90;96.50
40287;DHT22;25998;46.604;13.610;2023-06-14T13:59:33;23.60;96.80
40287;DHT22;25998;46.604;13.610;2023-06-14T14:02:44;23.40;98.30
40287;DHT22;25998;46.604;13.610;2023-06-14T14:05:55;23.40;98.30
40287;DHT22;25998;46.604;13.610;2023-06-14T14:09:07;23.40;99.90
40287;DHT22;25998;46.604;13.610;2023-06-14T14:12:18;23.40;98.90
40287;DHT22;25998;46.604;13.610;2023-06-14T14:15:29;23.20;98.30
40287;DHT22;25998;46.604;13.610;2023-06-14T14:18:40;22.80;98.90
40287;DHT22;25998;46.604;13.610;2023-06-14T14:21:51;22.40;99.90
40287;DHT22;25998;46.604;13.610;2023-06-14T14:25:04;22.20;99.90
40287;DHT22;25998;46.604;13.610;2023-06-14T14:28:15;21.90;99.90
40287;DHT22;25998;46.604;13.610;2023-06-14T14:31:26;21.70;99.90
40287;DHT22;25998;46.604;13.610;2023-06-14T14:34:37;21.70;99.90
40287;DHT22;25998;46.604;13.610;2023-06-14T14:37:48;21.70;99.90
40287;DHT22;25998;46.604;13.610;2023-06-14T14:40:59;21.60;99.90
40287;DHT22;25998;46.604;13.610;2023-06-14T14:44:10;21.30;99.90
40287;DHT22;25998;46.604;13.610;2023-06-14T14:47:20;20.90;99.90
40287;DHT22;25998;46.604;13.610;2023-06-14T14:50:32;20.80;99.90
40287;DHT22;25998;46.604;13.610;2023-06-14T14:53:42;20.50;99.90
40287;DHT22;25998;46.604;13.610;2023-06-14T14:56:53;20.50;99.90
40287;DHT22;25998;46.604;13.610;2023-06-14T15:00:05;20.70;99.90
40287;DHT22;25998;46.604;13.610;2023-06-14T15:03:16;20.90;99.90
40287;DHT22;25998;46.604;13.610;2023-06-14T15:06:27;21.10;99.90
40287;DHT22;25998;46.604;13.610;2023-06-14T15:09:38;20.80;99.90
40287;DHT22;25998;46.604;13.610;2023-06-14T15:12:52;20.70;99.90
40287;DHT22;25998;46.604;13.610;2023-06-14T15:16:03;20.90;99.90
40287;DHT22;25998;46.604;13.610;2023-06-14T15:19:20;21.10;99.90
40287;DHT22;25998;46.604;13.610;2023-06-14T15:22:31;21.40;99.90
40287;DHT22;25998;46.604;13.610;2023-06-14T15:25:41;21.30;99.90
40287;DHT22;25998;46.604;13.610;2023-06-14T15:28:52;21.00;99.90
40287;DHT22;25998;46.604;13.610;2023-06-14T15:32:03;20.70;99.90
40287;DHT22;25998;46.604;13.610;2023-06-14T15:35:16;20.70;99.90
40287;DHT22;25998;46.604;13.610;2023-06-14T15:38:28;20.90;99.90
40287;DHT22;25998;46.604;13.610;2023-06-14T15:41:39;20.90;99.90
40287;DHT22;25998;46.604;13.610;2023-06-14T15:44:50;20.90;99.90
40287;DHT22;25998;46.604;13.610;2023-06-14T15:48:01;20.80;99.90
40287;DHT22;25998;46.604;13.610;2023-06-14T15:51:11;20.80;99.90
40287;DHT22;25998;46.604;13.610;2023-06-14T15:54:22;20.70;99.90
40287;DHT22;25998;46.604;13.610;2023-06-14T15:57:34;20.60;99.90
40287;DHT22;25998;46.604;13.610;2023-06-14T16:00:45;20.70;99.90
40287;DHT22;25998;46.604;13.610;2023-06-14T16:03:56;20.70;99.90
40287;DHT22;25998;46.604;13.610;2023-06-14T16:07:06;20.80;99.90
40287;DHT22;25998;46.604;13.610;2023-06-14T16:10:17;20.60;99.90
40287;DHT22;25998;46.604;13.610;2023-06-14T16:13:28;20.70;99.90
40287;DHT22;25998;46.604;13.610;2023-06-14T16:16:39;20.70;99.90
40287;DHT22;25998;46.604;13.610;2023-06-14T16:19:50;20.70;99.90
40287;DHT22;25998;46.604;13.610;2023-06-14T16:23:01;20.70;99.90
40287;DHT22;25998;46.604;13.610;2023-06-14T16:26:12;20.80;99.90
40287;DHT22;25998;46.604;13.610;2023-06-14T16:29:23;21.00;99.90
40287;DHT22;25998;46.604;13.610;2023-06-14T16:32:34;21.10;99.90
40287;DHT22;25998;46.604;13.610;2023-06-14T16:35:45;21.30;99.90
40287;DHT22;25998;46.604;13.610;2023-06-14T16:38:55;21.20;99.90
40287;DHT22;25998;46.604;13.610;2023-06-14T16:42:07;21.10;99.90
40287;DHT22;25998;46.604;13.610;2023-06-14T16:45:18;20.90;99.90
40287;DHT22;25998;46.604;13.610;2023-06-14T16:48:29;20.80;99.90
40287;DHT22;25998;46.604;13.610;2023-06-14T16:51:40;20.80;99.90
40287;DHT22;25998;46.604;13.610;2023-06-14T16:54:51;20.80;99.90
40287;DHT22;25998;46.604;13.610;2023-06-14T16:58:02;20.70;99.90
40287;DHT22;25998;46.604;13.610;2023-06-14T17:01:13;20.70;99.90
40287;DHT22;25998;46.604;13.610;2023-06-14T17:04:24;20.50;99.90
40287;DHT22;25998;46.604;13.610;2023-06-14T17:07:35;20.50;99.90
40287;DHT22;25998;46.604;13.610;2023-06-14T17:10:45;20.50;99.90
40287;DHT22;25998;46.604;13.610;2023-06-14T17:13:56;20.50;99.90
40287;DHT22;25998;46.604;13.610;2023-06-14T17:17:07;20.50;99.90
40287;DHT22;25998;46.604;13.610;2023-06-14T17:20:18;20.40;99.90
40287;DHT22;25998;46.604;13.610;2023-06-14T17:23:30;20.50;99.90
40287;DHT22;25998;46.604;13.610;2023-06-14T17:26:40;20.40;99.90
40287;DHT22;25998;46.604;13.610;2023-06-14T17:29:51;20.50;99.90
40287;DHT22;25998;46.604;13.610;2023-06-14T17:33:07;20.30;99.90
40287;DHT22;25998;46.604;13.610;2023-06-14T17:36:19;20.10;99.90
40287;DHT22;25998;46.604;13.610;2023-06-14T17:39:30;19.80;99.90
40287;DHT22;25998;46.604;13.610;2023-06-14T17:42:41;19.80;99.90
40287;DHT22;25998;46.604;13.610;2023-06-14T17:45:52;19.90;99.90
40287;DHT22;25998;46.604;13.610;2023-06-14T17:49:02;19.80;99.90
40287;DHT22;25998;46.604;13.610;2023-06-14T17:52:13;19.60;99.90
40287;DHT22;25998;46.604;13.610;2023-06-14T17:55:24;19.60;99.90
40287;DHT22;25998;46.604;13.610;2023-06-14T17:58:35;19.70;99.90
40287;DHT22;25998;46.604;13.610;2023-06-14T18:01:46;19.70;99.90
40287;DHT22;25998;46.604;13.610;2023-06-14T18:04:57;19.70;99.90
40287;DHT22;25998;46.604;13.610;2023-06-14T18:08:08;19.40;99.90
40287;DHT22;25998;46.604;13.610;2023-06-14T18:11:19;19.50;99.90
40287;DHT22;25998;46.604;13.610;2023-06-14T18:14:30;19.60;99.90
40287;DHT22;25998;46.604;13.610;2023-06-14T18:17:42;19.50;99.90
40287;DHT22;25998;46.604;13.610;2023-06-14T18:20:52;19.50;99.90
40287;DHT22;25998;46.604;13.610;2023-06-14T18:24:03;19.50;99.90
40287;DHT22;25998;46.604;13.610;2023-06-14T18:27:15;19.40;99.90
40287;DHT22;25998;46.604;13.610;2023-06-14T18:30:26;19.30;99.90
40287;DHT22;25998;46.604;13.610;2023-06-14T18:33:37;19.30;99.90
40287;DHT22;25998;46.604;13.610;2023-06-14T18:36:48;19.30;99.90
40287;DHT22;25998;46.604;13.610;2023-06-14T18:39:59;19.30;99.90
40287;DHT22;25998;46.604;13.610;2023-06-14T18:43:10;19.30;99.90
40287;DHT22;25998;46.604;13.610;2023-06-14T18:46:22;19.20;99.90
40287;DHT22;25998;46.604;13.610;2023-06-14T18:49:33;19.10;99.90
40287;DHT22;25998;46.604;13.610;2023-06-14T18:52:45;19.10;99.90
40287;DHT22;25998;46.604;13.610;2023-06-14T18:55:56;19.10;99.90
40287;DHT22;25998;46.604;13.610;2023-06-14T18:59:07;18.90;99.90
40287;DHT22;25998;46.604;13.610;2023-06-14T19:02:18;18.70;99.90
40287;DHT22;25998;46.604;13.610;2023-06-14T19:05:29;18.30;99.90
40287;DHT22;25998;46.604;13.610;2023-06-14T19:08:40;18.30;99.90
40287;DHT22;25998;46.604;13.610;2023-06-14T19:11:52;18.40;99.90
40287;DHT22;25998;46.604;13.610;2023-06-14T19:15:03;18.40;99.90
40287;DHT22;25998;46.604;13.610;2023-06-14T19:18:14;18.40;99.90
40287;DHT22;25998;46.604;13.610;2023-06-14T19:21:25;18.40;99.90
40287;DHT22;25998;46.604;13.610;2023-06-14T19:24:36;18.30;99.90
40287;DHT22;25998;46.604;13.610;2023-06-14T19:27:48;18.30;99.90
40287;DHT22;25998;46.604;13.610;2023-06-14T19:30:59;18.30;99.90
40287;DHT22;25998;46.604;13.610;2023-06-14T19:34:10;18.10;99.90
40287;DHT22;25998;46.604;13.610;2023-06-14T19:37:20;17.90;99.90
40287;DHT22;25998;46.604;13.610;2023-06-14T19:40:31;17.50;99.90
40287;DHT22;25998;46.604;13.610;2023-06-14T19:43:42;17.20;99.90
40287;DHT22;25998;46.604;13.610;2023-06-14T19:46:53;17.10;99.90
40287;DHT22;25998;46.604;13.610;2023-06-14T19:50:04;17.30;99.90
40287;DHT22;25998;46.604;13.610;2023-06-14T19:53:19;17.20;99.90
40287;DHT22;25998;46.604;13.610;2023-06-14T19:56:30;17.40;99.90
40287;DHT22;25998;46.604;13.610;2023-06-14T19:59:42;17.50;99.90
40287;DHT22;25998;46.604;13.610;2023-06-14T20:02:54;17.50;99.90
40287;DHT22;25998;46.604;13.610;2023-06-14T20:06:05;17.40;99.90